Time;durP1;ratioP1;P1;durP2;ratioP2;P2;SDS_P1;SDS_P2;PMS_P1;PMS_P2;Temp;Humidity;BMP_temperature;BMP_pressure;BME280_temperature;BME280_humidity;BME280_pressure;Samples;Min_cycle;Max_cycle;Signal;HPM_P1;HPM_P2
2022/03/14 00:00:42;;;;;;;2.87;2.57;;;7.40;58.30;;;;;;5032053;28;20485;-43
2022/03/14 00:03:10;;;;;;;3.83;2.33;;;7.30;59.80;;;;;;5032484;28;20443;-44
2022/03/14 00:05:39;;;;;;;2.90;2.53;;;7.40;60.10;;;;;;5032200;28;20446;-43
2022/03/14 00:08:06;;;;;;;2.80;2.50;;;7.50;59.60;;;;;;5032145;28;20514;-43
2022/03/14 00:10:34;;;;;;;3.43;2.80;;;7.40;60.30;;;;;;5031659;28;20457;-43
2022/03/14 00:13:03;;;;;;;3.20;2.50;;;7.50;59.80;;;;;;5032296;28;20945;-42
2022/03/14 00:15:32;;;;;;;4.80;2.93;;;7.50;59.80;;;;;;5032102;28;20441;-43
2022/03/14 00:18:00;;;;;;;2.50;2.30;;;7.50;59.60;;;;;;5032142;28;20446;-42
2022/03/14 00:20:27;;;;;;;2.50;2.23;;;7.20;59.60;;;;;;5031259;28;20486;-43
2022/03/14 00:22:58;;;;;;;2.23;2.00;;;7.00;60.70;;;;;;5031814;28;20997;-43
2022/03/14 00:25:26;;;;;;;3.40;2.60;;;6.80;61.40;;;;;;5031938;28;20456;-43
2022/03/14 00:27:53;;;;;;;2.90;2.50;;;6.80;60.80;;;;;;5031590;28;20450;-43
2022/03/14 00:30:20;;;;;;;3.03;2.70;;;6.90;60.60;;;;;;5031392;28;20461;-42
2022/03/14 00:32:47;;;;;;;3.33;2.60;;;6.90;60.20;;;;;;5031593;28;20488;-43
2022/03/14 00:35:15;;;;;;;3.57;2.93;;;7.00;60.60;;;;;;5031366;28;20442;-42
2022/03/14 00:37:42;;;;;;;3.30;2.50;;;7.00;61.50;;;;;;5031808;28;20499;-43
2022/03/14 00:40:12;;;;;;;3.27;2.73;;;6.80;61.60;;;;;;5031378;28;20565;-42
2022/03/14 00:42:40;;;;;;;3.43;2.73;;;6.70;63.20;;;;;;5032043;28;20481;-42
2022/03/14 00:45:07;;;;;;;2.70;2.50;;;6.60;61.90;;;;;;5031588;28;20563;-42
2022/03/14 00:47:34;;;;;;;3.10;2.67;;;6.70;61.60;;;;;;5031306;28;20450;-43
2022/03/14 00:50:01;;;;;;;2.37;2.17;;;6.80;62.10;;;;;;5031312;28;20465;-42
2022/03/14 00:52:28;;;;;;;3.80;2.80;;;7.00;60.80;;;;;;5031907;28;20679;-42
2022/03/14 00:54:55;;;;;;;3.03;2.40;;;7.10;59.50;;;;;;5031757;28;21010;-42
2022/03/14 00:57:24;;;;;;;3.50;2.60;;;7.30;60.00;;;;;;5031633;28;20492;-43
2022/03/14 00:59:51;;;;;;;2.73;2.53;;;7.00;61.40;;;;;;5101135;22;20539;-44
2022/03/14 01:02:18;;;;;;;3.37;2.67;;;6.90;62.70;;;;;;5071320;28;21030;-43
2022/03/14 01:04:45;;;;;;;3.30;3.03;;;6.80;63.70;;;;;;5071340;28;20440;-43
2022/03/14 01:07:12;;;;;;;3.00;2.63;;;7.20;58.60;;;;;;5071210;28;20501;-43
2022/03/14 01:09:39;;;;;;;5.13;2.30;;;7.40;59.50;;;;;;5071273;28;20522;-43
2022/03/14 01:12:07;;;;;;;2.60;2.40;;;7.50;60.00;;;;;;5071468;28;20493;-43
2022/03/14 01:14:36;;;;;;;3.10;2.50;;;7.50;62.60;;;;;;5071520;28;20440;-43
2022/03/14 01:17:03;;;;;;;3.53;2.67;;;7.40;62.70;;;;;;5071038;28;20929;-40
2022/03/14 01:19:30;;;;;;;2.70;2.20;;;7.30;61.00;;;;;;5070775;28;20543;-41
2022/03/14 01:21:57;;;;;;;2.97;2.40;;;7.20;59.80;;;;;;5071215;28;20929;-41
2022/03/14 01:24:24;;;;;;;2.37;2.03;;;7.30;60.20;;;;;;5071176;28;20440;-41
2022/03/14 01:26:52;;;;;;;3.37;2.50;;;7.20;60.90;;;;;;5071083;28;20448;-41
2022/03/14 01:29:21;;;;;;;2.10;1.80;;;7.30;59.90;;;;;;5070826;28;20463;-41
2022/03/14 01:31:50;;;;;;;2.50;2.27;;;7.40;59.50;;;;;;5071160;28;20482;-41
2022/03/14 01:34:17;;;;;;;5.40;2.77;;;7.50;59.80;;;;;;5070761;28;20514;-41
2022/03/14 01:36:44;;;;;;;2.90;2.37;;;7.40;61.00;;;;;;5070807;28;20933;-41
2022/03/14 01:39:11;;;;;;;2.80;2.53;;;7.10;62.70;;;;;;5073103;28;20468;-41
2022/03/14 01:41:38;;;;;;;3.60;2.90;;;7.00;61.10;;;;;;5074856;28;20479;-41
2022/03/14 01:44:05;;;;;;;3.43;2.90;;;7.10;61.10;;;;;;5074594;28;20443;-41
2022/03/14 01:46:32;;;;;;;2.90;2.67;;;7.20;62.60;;;;;;5074508;28;20440;-40
2022/03/14 01:49:01;;;;;;;3.10;2.73;;;7.40;64.40;;;;;;5074383;28;20536;-38
2022/03/14 01:51:29;;;;;;;2.63;2.43;;;7.60;63.10;;;;;;5074540;28;20471;-41
2022/03/14 01:53:56;;;;;;;4.50;2.67;;;7.50;65.10;;;;;;5074350;28;20506;-41
2022/03/14 01:56:25;;;;;;;3.10;2.57;;;7.30;67.60;;;;;;5074374;28;20444;-41
2022/03/14 01:58:54;;;;;;;3.13;2.80;;;6.90;68.60;;;;;;5074749;28;20832;-38
2022/03/14 02:01:21;;;;;;;3.30;2.90;;;6.30;68.30;;;;;;5074524;28;20487;-41
2022/03/14 02:03:50;;;;;;;3.70;2.60;;;6.20;67.30;;;;;;5074135;28;20471;-41
2022/03/14 02:06:20;;;;;;;2.70;2.47;;;6.40;67.00;;;;;;5074208;28;20937;-41
2022/03/14 02:08:47;;;;;;;5.30;3.40;;;6.60;67.10;;;;;;5074305;28;20440;-40
2022/03/14 02:11:13;;;;;;;3.93;2.80;;;6.70;67.80;;;;;;5073735;28;20457;-41
2022/03/14 02:13:40;;;;;;;4.97;3.53;;;6.80;66.70;;;;;;5074424;28;20490;-41
2022/03/14 02:16:08;;;;;;;3.10;2.80;;;7.00;66.10;;;;;;5074173;28;20881;-41
2022/03/14 02:18:34;;;;;;;3.03;2.67;;;7.10;66.00;;;;;;5073848;28;20531;-38
2022/03/14 02:21:03;;;;;;;2.60;2.40;;;6.80;68.70;;;;;;5073909;28;20524;-40
2022/03/14 02:23:30;;;;;;;4.73;3.60;;;6.60;67.20;;;;;;5073852;28;20444;-41
2022/03/14 02:25:57;;;;;;;2.30;2.10;;;6.70;68.30;;;;;;5074290;28;20450;-41
2022/03/14 02:28:24;;;;;;;2.67;2.47;;;6.80;67.80;;;;;;5074108;28;20491;-41
2022/03/14 02:30:51;;;;;;;2.67;2.10;;;6.80;67.70;;;;;;5073427;28;20461;-41
2022/03/14 02:33:19;;;;;;;3.93;2.07;;;6.60;67.50;;;;;;5073591;28;20928;-40
2022/03/14 02:35:46;;;;;;;5.03;2.80;;;6.70;68.50;;;;;;5073741;28;20440;-41
2022/03/14 02:38:17;;;;;;;2.40;2.20;;;6.80;66.80;;;;;;5073542;28;20448;-41
2022/03/14 02:40:46;;;;;;;3.23;2.90;;;6.90;67.40;;;;;;5073500;28;20570;-41
2022/03/14 02:43:15;;;;;;;3.90;2.40;;;6.80;66.90;;;;;;5073955;28;20440;-41
2022/03/14 02:45:43;;;;;;;4.57;2.30;;;6.70;65.40;;;;;;5073718;28;20448;-41
2022/03/14 02:48:10;;;;;;;3.27;2.30;;;6.70;66.10;;;;;;5073153;28;21064;-41
2022/03/14 02:50:38;;;;;;;1.87;1.57;;;6.80;63.80;;;;;;5073214;28;20493;-41
2022/03/14 02:53:05;;;;;;;2.77;2.50;;;6.90;64.90;;;;;;5073409;28;20451;-40
2022/03/14 02:55:33;;;;;;;2.80;2.27;;;7.00;68.40;;;;;;5073523;28;20495;-44
2022/03/14 02:58:00;;;;;;;3.80;2.67;;;7.10;68.00;;;;;;5073445;28;20472;-38
2022/03/14 03:00:27;;;;;;;2.37;2.17;;;7.20;69.00;;;;;;5072624;28;20563;-41
2022/03/14 03:02:55;;;;;;;3.00;2.50;;;7.10;69.70;;;;;;5072979;28;20478;-40
2022/03/14 03:05:22;;;;;;;3.27;2.97;;;7.20;69.60;;;;;;5073162;28;20536;-40
2022/03/14 03:07:49;;;;;;;6.00;3.40;;;7.10;70.10;;;;;;5073469;28;20444;-41
2022/03/14 03:10:17;;;;;;;8.67;5.60;;;6.80;71.00;;;;;;5072815;28;20504;-41
2022/03/14 03:12:46;;;;;;;4.97;3.90;;;6.80;71.30;;;;;;5073040;28;20481;-41
2022/03/14 03:15:15;;;;;;;3.67;3.33;;;6.80;72.30;;;;;;5073073;28;20524;-42
2022/03/14 03:17:42;;;;;;;3.17;2.70;;;6.70;73.80;;;;;;5072848;28;20506;-41
2022/03/14 03:20:10;;;;;;;3.53;2.60;;;6.30;75.30;;;;;;5072471;28;20539;-41
2022/03/14 03:22:38;;;;;;;2.40;2.20;;;6.20;74.40;;;;;;5073013;28;20480;-40
2022/03/14 03:25:06;;;;;;;3.57;2.47;;;6.10;72.50;;;;;;5072841;28;20873;-41
2022/03/14 03:27:33;;;;;;;2.77;2.57;;;6.20;71.80;;;;;;5072806;28;20472;-40
2022/03/14 03:30:02;;;;;;;3.47;2.90;;;6.30;70.60;;;;;;5072331;28;20496;-41
2022/03/14 03:32:29;;;;;;;4.23;2.53;;;6.30;71.80;;;;;;5072860;28;20498;-41
2022/03/14 03:34:56;;;;;;;2.90;2.47;;;6.30;72.40;;;;;;5072261;28;20529;-43
2022/03/14 03:37:23;;;;;;;2.83;1.80;;;6.50;71.60;;;;;;5072759;28;20475;-41
2022/03/14 03:39:50;;;;;;;3.10;2.70;;;6.40;72.40;;;;;;5072297;28;21041;-41
2022/03/14 03:42:17;;;;;;;3.67;2.37;;;6.30;73.00;;;;;;5072444;28;20518;-40
2022/03/14 03:44:44;;;;;;;4.10;2.87;;;6.40;73.70;;;;;;5072215;28;20540;-40
2022/03/14 03:47:12;;;;;;;2.67;2.43;;;6.50;74.60;;;;;;5072390;28;20535;-41
2022/03/14 03:49:39;;;;;;;2.93;2.70;;;6.70;74.00;;;;;;5072292;28;20547;-41
2022/03/14 03:52:07;;;;;;;2.30;2.10;;;6.60;73.30;;;;;;5072229;28;20515;-41
2022/03/14 03:54:35;;;;;;;2.80;2.40;;;6.40;74.10;;;;;;5072310;28;20440;-41
2022/03/14 03:57:02;;;;;;;2.90;2.23;;;5.90;74.60;;;;;;5072137;28;20844;-40
2022/03/14 03:59:29;;;;;;;4.40;2.10;;;5.80;74.90;;;;;;5071603;28;20476;-41
2022/03/14 04:01:56;;;;;;;2.20;2.00;;;5.80;74.80;;;;;;5071374;28;20559;-41
2022/03/14 04:04:25;;;;;;;2.13;1.73;;;6.00;75.40;;;;;;5072018;28;20449;-40
2022/03/14 04:06:56;;;;;;;3.03;2.13;;;6.10;75.80;;;;;;5071602;28;20502;-42
2022/03/14 04:09:24;;;;;;;4.30;3.07;;;6.30;75.90;;;;;;5071875;28;20482;-41
2022/03/14 04:11:51;;;;;;;2.93;2.63;;;6.50;75.10;;;;;;5071990;28;20441;-41
2022/03/14 04:14:21;;;;;;;4.10;3.70;;;6.20;74.40;;;;;;5072117;28;20481;-40
2022/03/14 04:16:49;;;;;;;3.33;2.90;;;6.40;74.40;;;;;;5072086;28;20963;-41
2022/03/14 04:19:17;;;;;;;2.77;2.50;;;6.40;73.70;;;;;;5071484;28;21016;-40
2022/03/14 04:21:52;;;;;;;2.37;2.00;;;6.20;74.40;;;;;;5071865;28;20480;-40
2022/03/14 04:24:20;;;;;;;2.77;2.13;;;6.00;76.10;;;;;;5072078;28;20497;-41
2022/03/14 04:26:47;;;;;;;2.37;2.10;;;5.70;76.40;;;;;;5071802;28;20830;-41
2022/03/14 04:29:15;;;;;;;3.50;3.20;;;5.40;78.40;;;;;;5071263;28;20487;-41
2022/03/14 04:31:42;;;;;;;2.63;2.40;;;5.30;76.50;;;;;;5071542;28;20447;-40
2022/03/14 04:34:09;;;;;;;4.90;3.50;;;5.30;76.50;;;;;;5071354;28;20989;-41
2022/03/14 04:36:36;;;;;;;2.63;2.30;;;5.30;75.90;;;;;;5071712;28;20878;-42
2022/03/14 04:39:05;;;;;;;4.70;2.10;;;5.30;76.30;;;;;;5071294;28;20479;-41
2022/03/14 04:41:37;;;;;;;58.63;8.30;;;5.20;77.50;;;;;;5071503;28;20508;-41
2022/03/14 04:44:05;;;;;;;3.43;2.33;;;5.50;77.70;;;;;;5071391;28;20466;-41
2022/03/14 04:46:32;;;;;;;3.20;2.07;;;5.70;77.40;;;;;;5071720;28;20938;-41
2022/03/14 04:48:59;;;;;;;5.60;4.80;;;5.80;76.80;;;;;;5071488;28;20472;-39
2022/03/14 04:51:26;;;;;;;4.00;2.20;;;5.90;77.30;;;;;;5071738;28;20475;-41
2022/03/14 04:53:53;;;;;;;3.93;2.87;;;5.60;78.50;;;;;;5070910;28;20491;-41
2022/03/14 04:56:21;;;;;;;2.87;2.57;;;5.60;79.20;;;;;;5071572;28;20527;-40
2022/03/14 04:58:48;;;;;;;3.40;2.50;;;5.70;78.70;;;;;;5071336;28;20480;-41
2022/03/14 05:01:15;;;;;;;2.97;2.70;;;5.60;78.00;;;;;;5070781;28;20512;-41
2022/03/14 05:03:42;;;;;;;4.53;2.93;;;5.80;77.90;;;;;;5071108;28;20486;-41
2022/03/14 05:06:09;;;;;;;2.70;2.50;;;5.90;78.30;;;;;;5071252;28;20876;-41
2022/03/14 05:08:36;;;;;;;3.47;2.63;;;5.80;77.30;;;;;;5071407;28;20483;-42
2022/03/14 05:11:04;;;;;;;2.80;2.47;;;5.40;78.20;;;;;;5071426;28;20503;-41
2022/03/14 05:13:32;;;;;;;3.40;3.10;;;5.30;78.60;;;;;;5074109;28;20452;-41
2022/03/14 05:15:59;;;;;;;3.00;2.73;;;5.00;78.50;;;;;;5075279;28;20480;-41
2022/03/14 05:18:26;;;;;;;4.07;2.13;;;4.80;80.20;;;;;;5075234;28;20527;-41
2022/03/14 05:20:53;;;;;;;4.07;2.80;;;4.80;81.00;;;;;;5074928;28;20464;-41
2022/03/14 05:23:20;;;;;;;6.67;2.93;;;4.90;81.50;;;;;;5075347;28;20535;-41
2022/03/14 05:25:47;;;;;;;4.33;2.80;;;5.10;80.90;;;;;;5075258;28;20448;-42
2022/03/14 05:28:14;;;;;;;3.40;3.10;;;5.30;80.70;;;;;;5075326;28;20836;-41
2022/03/14 05:30:42;;;;;;;4.57;3.13;;;5.20;77.60;;;;;;5074713;28;20484;-40
2022/03/14 05:33:09;;;;;;;3.30;3.00;;;5.20;78.10;;;;;;5074975;28;20472;-41
2022/03/14 05:35:36;;;;;;;6.17;4.07;;;5.50;79.80;;;;;;5074794;28;20929;-40
2022/03/14 05:38:03;;;;;;;4.83;3.70;;;5.70;79.20;;;;;;5074828;28;20485;-41
2022/03/14 05:40:30;;;;;;;3.43;3.00;;;5.70;78.70;;;;;;5074528;28;20509;-42
2022/03/14 05:42:58;;;;;;;5.57;3.27;;;5.80;78.70;;;;;;5074671;28;20516;-40
2022/03/14 05:45:26;;;;;;;6.60;3.57;;;5.70;79.60;;;;;;5074875;28;20485;-41
2022/03/14 05:47:54;;;;;;;3.30;2.80;;;5.80;79.10;;;;;;5074702;28;20527;-41
2022/03/14 05:50:22;;;;;;;3.17;2.83;;;5.70;78.50;;;;;;5073949;28;20505;-40
2022/03/14 05:52:49;;;;;;;5.43;4.07;;;5.70;79.50;;;;;;5074364;28;20440;-41
2022/03/14 05:55:16;;;;;;;3.50;3.20;;;5.70;80.60;;;;;;5074184;28;20532;-41
2022/03/14 05:57:44;;;;;;;3.53;2.83;;;5.60;80.90;;;;;;5074017;28;20482;-42
2022/03/14 06:00:13;;;;;;;3.27;2.50;;;5.60;80.10;;;;;;5073812;28;20840;-42
2022/03/14 06:02:45;;;;;;;5.73;4.60;;;5.60;80.30;;;;;;5074606;28;20512;-41
2022/03/14 06:05:14;;;;;;;5.97;4.17;;;5.60;81.00;;;;;;5074410;28;20956;-41
2022/03/14 06:07:41;;;;;;;5.17;4.67;;;5.70;81.30;;;;;;5074447;28;20871;-41
2022/03/14 06:10:09;;;;;;;3.90;3.17;;;5.70;80.70;;;;;;5074130;28;20551;-41
2022/03/14 06:12:36;;;;;;;5.43;3.30;;;5.60;81.20;;;;;;5074081;28;20436;-41
2022/03/14 06:15:10;;;;;;;5.97;3.57;;;5.20;81.50;;;;;;5074398;28;20440;-41
2022/03/14 06:17:37;;;;;;;3.47;3.17;;;4.70;83.70;;;;;;5074064;28;20444;-42
2022/03/14 06:20:05;;;;;;;8.87;4.77;;;4.40;85.90;;;;;;5074054;28;20464;-41
2022/03/14 06:22:38;;;;;;;5.23;4.53;;;4.30;85.80;;;;;;5074129;28;20512;-40
2022/03/14 06:25:06;;;;;;;4.30;3.90;;;4.40;86.60;;;;;;5072863;28;20472;-41
2022/03/14 06:27:33;;;;;;;6.43;3.90;;;4.50;84.60;;;;;;5073845;28;20535;-42
2022/03/14 06:30:00;;;;;;;3.43;3.00;;;4.30;86.40;;;;;;5073467;28;20526;-41
2022/03/14 06:32:34;;;;;;;3.57;3.27;;;4.20;86.00;;;;;;5073636;28;20444;-40
2022/03/14 06:35:01;;;;;;;3.20;2.90;;;4.40;83.20;;;;;;5073758;28;20517;-41
2022/03/14 06:37:28;;;;;;;4.67;3.00;;;4.50;84.10;;;;;;5073875;28;20483;-41
2022/03/14 06:39:57;;;;;;;3.00;2.80;;;4.60;82.90;;;;;;5073319;28;20548;-41
2022/03/14 06:42:24;;;;;;;8.20;2.90;;;4.60;83.40;;;;;;5073858;28;20579;-41
2022/03/14 06:44:51;;;;;;;7.20;3.10;;;4.70;83.10;;;;;;5073776;28;20476;-41
2022/03/14 06:47:18;;;;;;;8.63;6.50;;;4.90;82.50;;;;;;5073621;28;20453;-42
2022/03/14 06:49:46;;;;;;;6.90;5.73;;;5.00;86.10;;;;;;5073311;28;20886;-40
2022/03/14 06:52:14;;;;;;;14.53;10.93;;;4.90;87.20;;;;;;5073492;28;20960;-40
2022/03/14 06:54:41;;;;;;;14.70;9.67;;;5.10;86.50;;;;;;5073173;28;20875;-41
2022/03/14 06:57:10;;;;;;;14.83;12.50;;;4.90;87.70;;;;;;5073085;28;20486;-41
2022/03/14 06:59:38;;;;;;;13.50;8.30;;;4.90;87.60;;;;;;5129998;22;20500;-42
2022/03/14 07:02:06;;;;;;;9.67;7.50;;;5.10;88.30;;;;;;5052909;28;21012;-44
2022/03/14 07:04:34;;;;;;;13.03;6.87;;;5.20;87.00;;;;;;5053173;28;20488;-43
2022/03/14 07:07:03;;;;;;;10.07;7.80;;;5.30;86.10;;;;;;5053052;28;20799;-44
2022/03/14 07:09:30;;;;;;;11.27;7.47;;;5.40;86.80;;;;;;5053144;28;20454;-42
2022/03/14 07:11:57;;;;;;;10.47;7.43;;;5.60;86.90;;;;;;5052756;28;20559;-42
2022/03/14 07:14:25;;;;;;;10.20;6.20;;;5.70;86.70;;;;;;5052917;28;20473;-42
2022/03/14 07:16:52;;;;;;;8.57;6.13;;;5.20;86.30;;;;;;5052999;28;20473;-42
2022/03/14 07:19:20;;;;;;;4.80;3.90;;;4.90;85.90;;;;;;5052711;28;20484;-42
2022/03/14 07:21:47;;;;;;;4.20;3.27;;;4.90;86.70;;;;;;5052792;28;20481;-43
2022/03/14 07:24:14;;;;;;;6.70;3.40;;;4.90;87.90;;;;;;5052319;28;20476;-42
2022/03/14 07:26:41;;;;;;;3.67;3.00;;;4.90;87.10;;;;;;5052559;28;20480;-43
2022/03/14 07:29:08;;;;;;;5.93;4.57;;;5.00;86.90;;;;;;5052168;28;20886;-42
2022/03/14 07:31:37;;;;;;;7.90;6.73;;;5.40;88.20;;;;;;5051178;28;20545;-43
2022/03/14 07:34:04;;;;;;;7.50;5.90;;;5.40;88.60;;;;;;5051807;28;20456;-43
2022/03/14 07:36:34;;;;;;;6.93;6.23;;;5.30;86.90;;;;;;5052528;28;20875;-43
2022/03/14 07:39:01;;;;;;;7.80;4.63;;;5.20;86.50;;;;;;5052372;28;20442;-42
2022/03/14 07:41:28;;;;;;;5.67;5.13;;;5.50;87.60;;;;;;5052086;28;20493;-42
2022/03/14 07:43:55;;;;;;;7.27;5.00;;;5.70;87.50;;;;;;5051906;28;20568;-42
2022/03/14 07:46:23;;;;;;;3.03;2.70;;;5.90;86.90;;;;;;5052514;28;20473;-43
2022/03/14 07:48:52;;;;;;;3.40;3.10;;;6.00;86.20;;;;;;5052062;28;20468;-42
2022/03/14 07:51:18;;;;;;;4.57;3.30;;;5.80;88.60;;;;;;5052416;28;20489;-42
2022/03/14 07:53:45;;;;;;;4.90;3.70;;;5.60;88.70;;;;;;5051731;28;20524;-42
2022/03/14 07:56:13;;;;;;;9.90;4.57;;;5.70;89.40;;;;;;5052002;28;20473;-42
2022/03/14 07:58:41;;;;;;;5.20;4.30;;;5.70;87.40;;;;;;5052328;28;20853;-42
2022/03/14 08:01:08;;;;;;;8.33;4.27;;;5.60;86.40;;;;;;5051570;28;20477;-42
2022/03/14 08:03:35;;;;;;;8.60;4.97;;;5.70;85.80;;;;;;5051890;28;20560;-42
2022/03/14 08:06:06;;;;;;;6.97;5.33;;;5.90;86.20;;;;;;5052439;28;20477;-42
2022/03/14 08:08:34;;;;;;;8.40;6.33;;;6.10;86.40;;;;;;5052234;28;20473;-45
2022/03/14 08:11:04;;;;;;;9.60;6.43;;;6.20;86.20;;;;;;5052293;28;20498;-42
2022/03/14 08:13:31;;;;;;;6.37;5.53;;;6.40;86.60;;;;;;5052526;28;20943;-42
2022/03/14 08:15:58;;;;;;;8.90;6.90;;;6.60;86.50;;;;;;5052673;28;21009;-42
2022/03/14 08:18:25;;;;;;;6.33;5.70;;;6.70;86.00;;;;;;5052298;28;20449;-42
2022/03/14 08:20:57;;;;;;;9.47;5.53;;;6.80;85.50;;;;;;5052223;28;20977;-44
2022/03/14 08:23:25;;;;;;;4.00;3.60;;;6.80;83.90;;;;;;5052341;28;20543;-43
2022/03/14 08:25:53;;;;;;;6.83;4.63;;;6.80;83.00;;;;;;5052224;28;20449;-44
2022/03/14 08:28:21;;;;;;;5.90;4.73;;;6.90;83.10;;;;;;5051613;28;20542;-42
2022/03/14 08:30:49;;;;;;;5.80;5.30;;;7.00;84.00;;;;;;5050883;28;20465;-43
2022/03/14 08:33:17;;;;;;;6.43;4.30;;;7.20;83.60;;;;;;5051067;28;20441;-43
2022/03/14 08:35:45;;;;;;;5.73;5.00;;;7.30;83.30;;;;;;5050980;28;20530;-43
2022/03/14 08:38:14;;;;;;;6.40;5.00;;;7.40;83.80;;;;;;5051160;28;20449;-43
2022/03/14 08:40:43;;;;;;;6.53;4.97;;;7.50;83.60;;;;;;5050793;28;20977;-42
2022/03/14 08:43:10;;;;;;;9.20;5.40;;;7.60;82.10;;;;;;5051471;28;20849;-44
2022/03/14 08:45:43;;;;;;;7.20;6.00;;;7.70;81.30;;;;;;5051075;28;20986;-43
2022/03/14 08:48:11;;;;;;;5.03;4.20;;;7.60;80.40;;;;;;5050777;28;20956;-43
2022/03/14 08:50:40;;;;;;;7.47;5.20;;;7.70;79.70;;;;;;5050899;28;20504;-43
2022/03/14 08:53:08;;;;;;;6.33;5.00;;;7.70;78.90;;;;;;5051178;28;20933;-43
2022/03/14 08:55:35;;;;;;;5.93;4.30;;;7.70;79.40;;;;;;5050481;28;20470;-43
2022/03/14 08:58:03;;;;;;;6.30;4.90;;;7.80;78.00;;;;;;5051171;28;20487;-43
2022/03/14 09:00:30;;;;;;;5.03;4.50;;;7.90;76.80;;;;;;5050557;28;20511;-42
2022/03/14 09:02:57;;;;;;;5.90;4.67;;;8.00;75.50;;;;;;5050676;28;20565;-43
2022/03/14 09:05:24;;;;;;;5.63;5.07;;;8.10;72.10;;;;;;5051449;28;20483;-43
2022/03/14 09:07:52;;;;;;;5.57;4.90;;;8.20;72.30;;;;;;5050700;28;20469;-43
2022/03/14 09:10:19;;;;;;;9.57;5.23;;;8.30;73.70;;;;;;5050780;28;20465;-43
2022/03/14 09:12:47;;;;;;;7.57;4.87;;;8.30;73.40;;;;;;5050981;28;20535;-43
2022/03/14 09:15:16;;;;;;;5.50;4.90;;;8.40;73.80;;;;;;5050989;28;20488;-43
2022/03/14 09:17:50;;;;;;;5.97;5.37;;;8.40;74.30;;;;;;5051129;28;20488;-43
2022/03/14 09:20:17;;;;;;;8.93;5.70;;;8.50;73.80;;;;;;5050938;28;20493;-42
2022/03/14 09:22:45;;;;;;;8.13;5.60;;;8.60;73.60;;;;;;5050483;28;20477;-43
2022/03/14 09:25:14;;;;;;;8.90;5.30;;;8.70;72.80;;;;;;5050516;28;20452;-44
2022/03/14 09:27:42;;;;;;;5.70;5.03;;;8.80;71.80;;;;;;5050543;28;20452;-43
2022/03/14 09:30:11;;;;;;;6.40;4.80;;;8.90;72.70;;;;;;5050125;28;20468;-45
2022/03/14 09:32:39;;;;;;;7.63;5.57;;;9.00;73.10;;;;;;5050093;28;20445;-43
2022/03/14 09:35:08;;;;;;;7.60;6.07;;;9.10;73.20;;;;;;5050490;28;20525;-43
2022/03/14 09:37:37;;;;;;;7.27;5.13;;;9.20;71.70;;;;;;5050378;28;20445;-42
2022/03/14 09:40:06;;;;;;;7.47;5.63;;;9.30;70.10;;;;;;5050212;28;20501;-43
2022/03/14 09:42:36;;;;;;;5.70;5.20;;;9.40;68.80;;;;;;5051061;28;20481;-43
2022/03/14 09:45:04;;;;;;;7.20;5.40;;;9.50;69.00;;;;;;5050415;28;20877;-43
2022/03/14 09:47:35;;;;;;;7.10;5.97;;;9.70;68.30;;;;;;5050601;28;20496;-43
2022/03/14 09:50:08;;;;;;;9.27;5.70;;;9.80;67.00;;;;;;5048774;28;20493;-43
2022/03/14 09:52:37;;;;;;;8.70;5.80;;;10.00;64.20;;;;;;5048905;28;20425;-43
2022/03/14 09:55:06;;;;;;;9.50;6.10;;;10.00;63.60;;;;;;5049112;28;20444;-43
2022/03/14 09:57:34;;;;;;;10.00;5.70;;;10.00;64.00;;;;;;5048163;28;20469;-43
2022/03/14 10:00:01;;;;;;;8.83;6.00;;;10.10;65.80;;;;;;5050343;28;20469;-44
2022/03/14 10:02:29;;;;;;;7.80;6.00;;;10.30;66.20;;;;;;5052801;28;20472;-43
2022/03/14 10:04:57;;;;;;;8.63;5.93;;;10.50;66.00;;;;;;5053910;28;20480;-43
2022/03/14 10:07:26;;;;;;;6.73;5.93;;;10.60;62.60;;;;;;5054272;28;20933;-43
2022/03/14 10:09:54;;;;;;;7.53;5.53;;;10.80;62.40;;;;;;5052591;28;20552;-43
2022/03/14 10:12:21;;;;;;;12.30;6.80;;;10.90;62.20;;;;;;5052913;28;20449;-43
2022/03/14 10:14:48;;;;;;;9.17;6.77;;;11.10;64.10;;;;;;5052545;28;20481;-44
2022/03/14 10:17:15;;;;;;;9.30;6.33;;;11.20;61.50;;;;;;5052577;28;20479;-43
2022/03/14 10:19:45;;;;;;;7.00;6.00;;;11.30;61.90;;;;;;5052160;28;20536;-43
2022/03/14 10:22:16;;;;;;;7.53;6.03;;;11.50;61.10;;;;;;5052342;28;20465;-43
2022/03/14 10:24:44;;;;;;;7.17;5.77;;;11.60;61.20;;;;;;5053176;28;20890;-44
2022/03/14 10:27:12;;;;;;;10.03;7.27;;;11.80;62.60;;;;;;5053805;28;20449;-43
2022/03/14 10:29:39;;;;;;;6.33;5.70;;;11.90;62.60;;;;;;5053750;28;20450;-43
2022/03/14 10:32:19;;;;;;;7.57;6.17;;;12.00;61.20;;;;;;5053490;28;20565;-43
2022/03/14 10:34:52;;;;;;;7.07;6.37;;;12.00;60.80;;;;;;5050790;28;20844;-46
2022/03/14 10:37:19;;;;;;;8.83;6.93;;;12.00;61.30;;;;;;5051973;28;20464;-44
2022/03/14 10:39:47;;;;;;;7.83;6.70;;;11.80;61.00;;;;;;5051489;28;20493;-43
2022/03/14 10:42:15;;;;;;;9.10;6.50;;;11.70;60.40;;;;;;5050755;28;20492;-44
2022/03/14 10:44:43;;;;;;;7.17;6.47;;;11.90;62.60;;;;;;5052049;28;20477;-43
2022/03/14 10:47:13;;;;;;;11.07;7.03;;;12.20;63.40;;;;;;5051880;28;20533;-43
2022/03/14 10:49:43;;;;;;;8.67;6.80;;;12.30;66.20;;;;;;5052627;28;20442;-44
2022/03/14 10:52:13;;;;;;;7.30;5.47;;;12.60;64.60;;;;;;5053095;28;21062;-43
2022/03/14 10:54:41;;;;;;;6.63;5.23;;;12.70;63.10;;;;;;5052892;28;20449;-44
2022/03/14 10:57:11;;;;;;;6.50;5.67;;;12.80;65.70;;;;;;5052636;28;20477;-43
2022/03/14 10:59:40;;;;;;;8.70;6.60;;;12.80;63.90;;;;;;5052079;28;20469;-44
2022/03/14 11:02:09;;;;;;;9.60;6.27;;;12.90;61.30;;;;;;5053084;28;20477;-43
2022/03/14 11:04:43;;;;;;;7.07;5.70;;;12.90;60.40;;;;;;5052338;28;20477;-43
2022/03/14 11:07:11;;;;;;;6.30;5.70;;;12.90;59.60;;;;;;5050919;28;20548;-43
2022/03/14 11:09:40;;;;;;;7.30;6.60;;;13.00;60.20;;;;;;5049098;28;20507;-44
2022/03/14 11:12:09;;;;;;;11.13;5.93;;;13.10;63.10;;;;;;5051066;28;20453;-43
2022/03/14 11:14:36;;;;;;;7.97;5.97;;;13.20;60.70;;;;;;5047252;28;20449;-43
2022/03/14 11:17:18;;;;;;;6.97;5.13;;;13.20;59.40;;;;;;5050365;28;20477;-44
2022/03/14 11:19:46;;;;;;;10.20;6.63;;;13.20;59.80;;;;;;5050658;28;20540;-43
2022/03/14 11:22:15;;;;;;;13.97;11.80;;;13.30;61.20;;;;;;5051495;28;20484;-43
2022/03/14 11:24:45;;;;;;;6.90;5.37;;;13.40;60.20;;;;;;5052710;28;20564;-43
2022/03/14 11:27:19;;;;;;;6.90;5.73;;;13.50;58.90;;;;;;5052434;28;20492;-44
2022/03/14 11:29:47;;;;;;;6.30;5.17;;;13.50;59.70;;;;;;5052079;28;20998;-44
2022/03/14 11:32:17;;;;;;;6.00;5.40;;;13.50;59.50;;;;;;5052198;28;20516;-43
2022/03/14 11:34:45;;;;;;;5.93;5.13;;;13.60;57.60;;;;;;5052024;28;20437;-43
2022/03/14 11:37:12;;;;;;;5.93;4.90;;;13.70;55.80;;;;;;5051177;28;20496;-44
2022/03/14 11:39:40;;;;;;;6.37;5.77;;;13.80;57.30;;;;;;5050761;28;20886;-43
2022/03/14 11:42:07;;;;;;;7.27;6.10;;;13.80;59.70;;;;;;5050614;28;20810;-43
2022/03/14 11:44:37;;;;;;;5.63;5.10;;;13.90;59.20;;;;;;5050668;28;20556;-44
2022/03/14 11:47:05;;;;;;;6.30;5.30;;;14.00;58.70;;;;;;5050403;28;20905;-44
2022/03/14 11:49:33;;;;;;;6.47;5.87;;;14.10;57.30;;;;;;5051127;28;20520;-44
2022/03/14 11:52:08;;;;;;;6.03;5.00;;;14.10;54.80;;;;;;5050401;28;20520;-43
2022/03/14 11:54:40;;;;;;;6.57;5.00;;;14.00;55.50;;;;;;5051178;28;20437;-43
2022/03/14 11:57:09;;;;;;;6.93;5.73;;;14.10;58.10;;;;;;5052068;28;20441;-44
2022/03/14 11:59:38;;;;;;;6.90;5.73;;;14.20;57.60;;;;;;5051503;28;20495;-43
2022/03/14 12:02:07;;;;;;;8.80;6.10;;;14.20;58.00;;;;;;5052275;28;20883;-44
2022/03/14 12:04:36;;;;;;;6.30;5.70;;;14.20;58.50;;;;;;5051765;28;20480;-44
2022/03/14 12:07:16;;;;;;;7.10;6.20;;;14.30;57.40;;;;;;5051354;28;20449;-44
2022/03/14 12:09:52;;;;;;;8.13;6.87;;;14.30;57.60;;;;;;5051584;28;20476;-43
2022/03/14 12:12:32;;;;;;;6.33;5.07;;;14.40;56.90;;;;;;5051291;28;20429;-44
2022/03/14 12:15:01;;;;;;;7.17;5.20;;;14.40;56.00;;;;;;5050425;28;20473;-43
2022/03/14 12:17:31;;;;;;;7.23;4.67;;;14.40;55.40;;;;;;5049936;28;20516;-43
2022/03/14 12:20:04;;;;;;;7.53;5.27;;;14.40;56.30;;;;;;5049454;28;20512;-45
2022/03/14 12:22:49;;;;;;;9.03;6.10;;;14.40;56.80;;;;;;5048679;28;20819;-44
2022/03/14 12:25:42;;;;;;;9.07;5.63;;;14.60;58.60;;;;;;5049594;28;20569;-44
2022/03/14 12:28:30;;;;;;;6.70;6.10;;;14.60;56.50;;;;;;5050832;28;20519;-43
2022/03/14 12:31:10;;;;;;;6.03;5.43;;;14.70;56.90;;;;;;5050644;28;20470;-44
2022/03/14 12:33:38;;;;;;;6.97;5.90;;;14.70;57.90;;;;;;5051142;28;20445;-43
2022/03/14 12:36:50;;;;;;;9.33;6.30;;;14.80;57.50;;;;;;5030996;28;20477;-44
2022/03/14 12:39:26;;;;;;;6.40;5.80;;;14.90;58.90;;;;;;5044112;28;20445;-45
2022/03/14 12:41:54;;;;;;;8.33;5.70;;;14.90;57.90;;;;;;5034601;28;20487;-44
2022/03/14 12:44:22;;;;;;;6.20;5.10;;;14.90;58.10;;;;;;5049458;28;21041;-44
2022/03/14 12:46:52;;;;;;;6.70;5.07;;;14.90;57.60;;;;;;5049553;28;20476;-44
2022/03/14 12:49:27;;;;;;;6.47;5.87;;;14.90;55.20;;;;;;5045078;28;20449;-43
2022/03/14 12:52:14;;;;;;;7.40;5.43;;;14.90;56.00;;;;;;5051313;28;20775;-44
2022/03/14 12:54:43;;;;;;;6.00;5.20;;;14.90;54.50;;;;;;5050359;28;20441;-43
2022/03/14 12:57:12;;;;;;;5.60;4.40;;;14.90;55.20;;;;;;5051233;28;20545;-44
2022/03/14 12:59:44;;;;;;;6.37;4.90;;;14.90;53.60;;;;;;5050796;28;20442;-43